Impacts METAR Board
IDs:

KLGA - New York/La Guardia, NY, US

Updated at: 2000 UTC 15 Jun 2019
Potential Impact None Slight Moderate High
Time 15/08Z 15/09Z 15/10Z 15/11Z 15/12Z 15/13Z 15/14Z 15/15Z 15/16Z 15/17Z 15/18Z 15/19Z 15/20Z
Temp65 63 63 64 67 71 76 77 79 81 82 83 83
Dewpt44 44 46 46 46 44 44 45 52 44 48 47 44
Altim30.10 30.11 30.11 30.13 30.14 30.13 30.11 30.10 30.07 30.05 30.02 30.00 29.98
VIS10 10 10 10 10 10 10 10 10 10 10 10 10
CIG-- -- 250 250 250 250 250 250 250 220 250 220 180
CoverFEWSCTBKNBKNBKNBKNBKNBKNBKNBKNBKNBKNBKN
FltCatVFRVFRVFRVFRVFRVFRVFRVFRVFRVFRVFRVFRVFR
WX--------------------------
WDir2000180200220230200200150240230230220
WSpd4 0 4 6 7 5 13 11 12 16 11 16 17
WGst-- -- -- -- -- -- -- -- -- 22 -- 22 25
Raw hourly METARs
KLGA 150751Z 20004KT 10SM FEW250 18/07 A3010 RMK AO2 SLP194 T01830067
KLGA 150851Z 00000KT 10SM SCT250 17/07 A3011 RMK AO2 SLP196 T01720067 51007
KLGA 150951Z 18004KT 10SM SCT200 BKN250 17/08 A3011 RMK AO2 SLP197 T01720078
KLGA 151051Z 20006KT 10SM FEW200 BKN250 18/08 A3013 RMK AO2 SLP203 T01780078
KLGA 151151Z 22007KT 10SM FEW200 BKN250 19/08 A3014 RMK AO2 SLP205 T01940078 10194 20167 53010
KLGA 151251Z 23005KT 10SM FEW200 BKN250 22/07 A3013 RMK AO2 SLP201 T02170067
KLGA 151351Z 20013KT 10SM FEW200 BKN250 24/07 A3011 RMK AO2 SLP196 T02440067
KLGA 151451Z 20011KT 10SM FEW150 SCT200 BKN250 25/07 A3010 RMK AO2 SLP192 T02500072 56013
KLGA 151551Z 15012KT 10SM FEW150 SCT220 BKN250 26/11 A3007 RMK AO2 SLP184 T02610111
KLGA 151651Z 24016G22KT 10SM FEW160 BKN220 BKN250 27/07 A3005 RMK AO2 SLP177 ACSL W-NW T02720067
KLGA 151751Z 23011KT 10SM FEW060 FEW160 SCT220 BKN250 28/09 A3002 RMK AO2 SLP164 T02780089 10278 20194 58028
KLGA 151851Z 23016G22KT 10SM FEW055 SCT150 BKN220 BKN250 28/08 A3000 RMK AO2 SLP159 T02830083
KLGA 151951Z 22017G25KT 10SM FEW055 FEW080 BKN180 BKN250 28/07 A2998 RMK AO2 PK WND 19026/1933 SLP153 T02830067



Page loaded:  20:43 UTC  |   01:43 PM Pacific  |   02:43 PM Mountain  |   03:43 PM Central  |   04:43 PM Eastern

 

ADVISORIES

FORECASTS

FORECASTS

OBSERVATIONS

USER TOOLS

ABOUT US